createdAt,value
2022-11-24T00:00:51.310Z,61.83
2022-11-24T00:01:51.334Z,60.44
2022-11-24T00:02:51.421Z,60.86
2022-11-24T00:03:51.297Z,61.03
2022-11-24T00:04:51.268Z,61.15
2022-11-24T00:05:51.282Z,64.91
2022-11-24T00:06:51.239Z,61.75
2022-11-24T00:07:51.289Z,61.46
2022-11-24T00:08:51.237Z,61.88
2022-11-24T00:09:51.200Z,61.60
2022-11-24T00:10:51.195Z,64.09
2022-11-24T00:11:51.171Z,62.56
2022-11-24T00:12:51.166Z,63.83
2022-11-24T00:13:51.195Z,63.76
2022-11-24T00:14:51.152Z,61.69
2022-11-24T00:15:51.136Z,60.60
2022-11-24T00:16:51.187Z,63.44
2022-11-24T00:17:51.117Z,63.24
2022-11-24T00:18:51.127Z,62.76
2022-11-24T00:19:51.090Z,62.48
2022-11-24T00:20:51.079Z,60.23
2022-11-24T00:21:51.141Z,59.90
2022-11-24T00:22:51.098Z,61.79
2022-11-24T00:23:51.068Z,62.29
2022-11-24T00:24:51.035Z,61.90
2022-11-24T00:25:51.019Z,60.21
2022-11-24T00:26:51.011Z,60.61
2022-11-24T00:27:51.000Z,61.61
2022-11-24T00:28:51.036Z,60.69
2022-11-24T00:29:50.978Z,61.79
2022-11-24T00:30:51.009Z,59.11
2022-11-24T00:31:50.953Z,63.29
2022-11-24T00:32:50.950Z,63.13
2022-11-24T00:33:50.957Z,62.22
2022-11-24T00:34:50.922Z,62.03
2022-11-24T00:35:50.905Z,64.51
2022-11-24T00:36:50.905Z,62.28
2022-11-24T00:37:50.992Z,61.15
2022-11-24T00:38:50.887Z,61.66
2022-11-24T00:39:50.887Z,62.84
2022-11-24T00:40:50.859Z,62.58
2022-11-24T00:41:50.837Z,60.53
2022-11-24T00:42:50.827Z,63.75
2022-11-24T00:43:50.840Z,63.47
2022-11-24T00:44:50.801Z,62.62
2022-11-24T00:45:50.905Z,63.61
2022-11-24T00:46:50.839Z,60.49
2022-11-24T00:47:50.771Z,59.58
2022-11-24T00:48:50.779Z,60.89
2022-11-24T00:49:50.753Z,63.79
2022-11-24T00:50:50.777Z,63.49
2022-11-24T00:51:50.728Z,60.78
2022-11-24T00:52:50.719Z,63.61
2022-11-24T00:53:50.724Z,62.93
2022-11-24T00:54:50.688Z,63.32
2022-11-24T00:55:50.684Z,61.12
2022-11-24T00:56:50.674Z,64.51
2022-11-24T00:57:50.672Z,60.18
2022-11-24T00:58:50.700Z,60.45
2022-11-24T00:59:50.648Z,62.16
2022-11-24T01:00:50.640Z,62.39
2022-11-24T01:01:50.670Z,62.10
2022-11-24T01:02:51.654Z,62.98
2022-11-24T01:03:50.616Z,63.44
2022-11-24T01:04:50.598Z,60.14
2022-11-24T01:05:50.619Z,62.88
2022-11-24T01:06:50.571Z,64.62
2022-11-24T01:07:50.591Z,61.11
2022-11-24T01:08:50.568Z,62.34
2022-11-24T01:09:50.564Z,63.40
2022-11-24T01:10:50.519Z,62.25
2022-11-24T01:11:50.511Z,62.88
2022-11-24T01:12:50.531Z,63.73
2022-11-24T01:13:50.508Z,62.24
2022-11-24T01:14:50.467Z,61.71
2022-11-24T01:15:50.521Z,61.35
2022-11-24T01:16:50.485Z,60.69
2022-11-24T01:17:50.444Z,61.96
2022-11-24T01:18:50.480Z,60.53
2022-11-24T01:19:50.429Z,59.65
2022-11-24T01:20:50.410Z,60.23
2022-11-24T01:21:50.404Z,59.21
2022-11-24T01:22:50.400Z,60.44
2022-11-24T01:23:50.425Z,60.93
2022-11-24T01:24:50.381Z,59.75
2022-11-24T01:25:50.359Z,61.39
2022-11-24T01:26:50.346Z,60.23
2022-11-24T01:27:50.335Z,61.08
2022-11-24T01:28:50.363Z,62.95
2022-11-24T01:29:50.318Z,62.89
2022-11-24T01:30:50.386Z,62.22
2022-11-24T01:31:50.379Z,62.70
2022-11-24T01:32:50.275Z,58.61
2022-11-24T01:33:50.264Z,59.47
2022-11-24T01:34:50.293Z,61.68
2022-11-24T01:35:50.249Z,60.90
2022-11-24T01:36:50.240Z,60.34
2022-11-24T01:37:50.239Z,61.03
2022-11-24T01:38:50.215Z,59.22
2022-11-24T01:39:50.240Z,61.86
2022-11-24T01:40:50.196Z,60.99
2022-11-24T01:41:50.184Z,59.19
2022-11-24T01:42:50.167Z,60.57
2022-11-24T01:43:50.161Z,61.75
2022-11-24T01:44:50.174Z,62.50
2022-11-24T01:45:50.156Z,61.55
2022-11-24T01:46:50.122Z,61.80
2022-11-24T01:47:50.118Z,59.80
2022-11-24T01:48:50.111Z,61.23
2022-11-24T01:49:50.108Z,60.29
2022-11-24T01:50:50.075Z,60.93
2022-11-24T01:51:50.076Z,61.37
2022-11-24T01:52:50.050Z,60.78
2022-11-24T01:53:51.042Z,62.51
2022-11-24T01:54:50.048Z,57.41
2022-11-24T01:55:50.022Z,58.43
2022-11-24T01:56:50.008Z,60.79
2022-11-24T01:57:50.009Z,61.65
2022-11-24T01:58:49.993Z,59.10
2022-11-24T01:59:49.997Z,59.97
2022-11-24T02:00:49.970Z,61.24
2022-11-24T02:01:50.031Z,58.68
2022-11-24T02:02:50.060Z,58.36
2022-11-24T02:03:49.941Z,61.28
2022-11-24T02:04:49.947Z,61.54
2022-11-24T02:05:49.912Z,60.78
2022-11-24T02:06:49.902Z,62.29
2022-11-24T02:07:49.935Z,60.79
2022-11-24T02:08:49.882Z,62.17
2022-11-24T02:09:49.890Z,62.00
2022-11-24T02:10:49.850Z,59.77
2022-11-24T02:11:49.843Z,58.69
2022-11-24T02:12:49.855Z,59.37
2022-11-24T02:13:49.813Z,58.31
2022-11-24T02:14:49.824Z,59.70
2022-11-24T02:15:49.858Z,63.74
2022-11-24T02:16:49.788Z,59.57
2022-11-24T02:17:52.334Z,61.31
2022-11-24T02:19:23.444Z,61.15
2022-11-24T02:19:49.755Z,60.04
2022-11-24T02:20:49.742Z,61.14
2022-11-24T02:21:49.714Z,60.62
2022-11-24T02:22:49.722Z,59.74
2022-11-24T02:23:49.705Z,61.08
2022-11-24T02:24:49.716Z,60.32
2022-11-24T02:25:49.685Z,62.32
2022-11-24T02:26:49.682Z,61.52
2022-11-24T02:27:53.855Z,59.51
2022-11-24T02:28:50.657Z,59.23
2022-11-24T02:29:49.668Z,60.88
2022-11-24T02:30:49.668Z,60.16
2022-11-24T02:31:49.622Z,61.37
2022-11-24T02:32:49.614Z,61.53
2022-11-24T02:33:49.605Z,59.69
2022-11-24T02:34:49.612Z,59.06
2022-11-24T02:35:49.590Z,61.15
2022-11-24T02:36:49.573Z,62.97
2022-11-24T02:37:49.558Z,61.51
2022-11-24T02:38:49.547Z,60.38
2022-11-24T02:39:49.559Z,58.59
2022-11-24T02:40:49.530Z,61.97
2022-11-24T02:41:49.523Z,61.84
2022-11-24T02:42:49.505Z,61.78
2022-11-24T02:43:49.500Z,63.83
2022-11-24T02:44:49.507Z,60.49
2022-11-24T02:45:49.468Z,61.50
2022-11-24T02:46:49.463Z,61.42
2022-11-24T02:47:49.453Z,64.08
2022-11-24T02:48:49.439Z,62.81
2022-11-24T02:49:49.439Z,61.18
2022-11-24T02:50:49.411Z,61.62
2022-11-24T02:51:49.400Z,64.50
2022-11-24T02:52:49.388Z,62.18
2022-11-24T02:53:49.373Z,63.70
2022-11-24T02:54:49.388Z,61.46
2022-11-24T02:55:49.355Z,61.68
2022-11-24T02:56:49.339Z,59.81
2022-11-24T02:57:49.324Z,61.20
2022-11-24T02:58:49.344Z,61.16
2022-11-24T02:59:49.332Z,63.03
2022-11-24T03:00:49.299Z,63.18
2022-11-24T03:01:49.348Z,62.92
2022-11-24T03:02:49.310Z,64.14
2022-11-24T03:03:49.268Z,62.63
2022-11-24T03:04:49.273Z,63.31
2022-11-24T03:05:49.231Z,61.80
2022-11-24T03:06:49.255Z,61.37
2022-11-24T03:07:49.261Z,62.68
2022-11-24T03:08:49.227Z,61.92
2022-11-24T03:09:49.209Z,60.71
2022-11-24T03:10:49.251Z,59.58
2022-11-24T03:11:49.172Z,60.35
2022-11-24T03:12:49.160Z,63.17
2022-11-24T03:13:49.148Z,62.59
2022-11-24T03:14:49.162Z,59.45
2022-11-24T03:15:49.275Z,59.83
2022-11-24T03:16:49.123Z,64.17
2022-11-24T03:17:49.108Z,64.18
2022-11-24T03:18:49.132Z,63.29
2022-11-24T03:19:49.189Z,62.81
2022-11-24T03:20:49.080Z,63.05
2022-11-24T03:21:49.063Z,62.81
2022-11-24T03:22:49.055Z,62.86
2022-11-24T03:23:49.049Z,61.22
2022-11-24T03:24:49.049Z,65.49
2022-11-24T03:25:49.006Z,63.32
2022-11-24T03:26:49.013Z,61.37
2022-11-24T03:27:48.995Z,63.06
2022-11-24T03:28:48.988Z,62.25
2022-11-24T03:29:48.988Z,62.30
2022-11-24T03:30:49.049Z,63.24
2022-11-24T03:31:48.946Z,63.28
2022-11-24T03:32:48.937Z,62.97
2022-11-24T03:33:48.916Z,63.07
2022-11-24T03:34:48.931Z,62.79
2022-11-24T03:35:48.904Z,63.22
2022-11-24T03:36:48.879Z,61.34
2022-11-24T03:37:49.877Z,62.68
2022-11-24T03:38:48.868Z,63.47
2022-11-24T03:39:48.879Z,64.06
2022-11-24T03:40:48.849Z,61.97
2022-11-24T03:41:48.825Z,62.91
2022-11-24T03:42:48.822Z,64.39
2022-11-24T03:43:48.813Z,63.30
2022-11-24T03:44:48.822Z,63.66
2022-11-24T03:45:48.782Z,64.42
2022-11-24T03:46:48.847Z,63.51
2022-11-24T03:47:48.772Z,63.40
2022-11-24T03:48:48.774Z,65.04
2022-11-24T03:49:48.754Z,63.49
2022-11-24T03:50:48.738Z,63.36
2022-11-24T03:51:48.727Z,66.31
2022-11-24T03:52:48.712Z,61.61
2022-11-24T03:53:48.703Z,62.68
2022-11-24T03:54:48.712Z,63.43
2022-11-24T03:55:48.689Z,64.98
2022-11-24T03:56:48.670Z,62.64
2022-11-24T03:57:48.657Z,63.72
2022-11-24T03:58:48.650Z,63.80
2022-11-24T03:59:48.652Z,64.46
2022-11-24T04:00:48.626Z,63.93
2022-11-24T04:01:48.652Z,63.82
2022-11-24T04:02:48.670Z,62.03
2022-11-24T04:03:48.595Z,64.91
2022-11-24T04:04:49.873Z,62.95
2022-11-24T04:05:48.569Z,62.93
2022-11-24T04:06:48.561Z,65.90
2022-11-24T04:07:48.590Z,63.13
2022-11-24T04:08:48.540Z,64.68
2022-11-24T04:09:48.544Z,64.03
2022-11-24T04:10:48.515Z,63.06
2022-11-24T04:11:48.506Z,63.49
2022-11-24T04:12:48.488Z,64.93
2022-11-24T04:13:48.487Z,64.67
2022-11-24T04:14:48.495Z,63.50
2022-11-24T04:15:48.508Z,66.79
2022-11-24T04:16:48.455Z,63.82
2022-11-24T04:17:48.452Z,63.32
2022-11-24T04:18:48.445Z,63.62
2022-11-24T04:19:48.435Z,63.96
2022-11-24T04:20:48.401Z,64.12
2022-11-24T04:21:48.394Z,63.73
2022-11-24T04:22:48.389Z,62.94
2022-11-24T04:23:48.376Z,65.40
2022-11-24T04:24:48.385Z,64.58
2022-11-24T04:25:48.358Z,65.09
2022-11-24T04:26:48.339Z,64.28
2022-11-24T04:27:48.333Z,62.34
2022-11-24T04:28:48.320Z,65.38
2022-11-24T04:29:48.324Z,64.63
2022-11-24T04:30:48.300Z,64.63
2022-11-24T04:31:48.371Z,63.56
2022-11-24T04:32:48.261Z,64.87
2022-11-24T04:33:48.262Z,65.22
2022-11-24T04:34:48.266Z,64.73
2022-11-24T04:35:48.242Z,64.34
2022-11-24T04:36:48.217Z,63.26
2022-11-24T04:37:48.217Z,63.63
2022-11-24T04:39:24.421Z,64.33
2022-11-24T04:39:49.338Z,64.29
2022-11-24T04:40:48.189Z,65.70
2022-11-24T04:41:48.173Z,64.96
2022-11-24T04:42:48.159Z,65.73
2022-11-24T04:43:48.148Z,66.33
2022-11-24T04:44:48.150Z,65.93
2022-11-24T04:45:48.127Z,65.45
2022-11-24T04:46:48.179Z,66.10
2022-11-24T04:47:48.106Z,65.89
2022-11-24T04:48:48.089Z,63.85
2022-11-24T04:49:48.102Z,65.02
2022-11-24T04:50:48.060Z,64.09
2022-11-24T04:51:48.050Z,64.40
2022-11-24T04:52:48.051Z,63.69
2022-11-24T04:53:48.024Z,65.71
2022-11-24T04:54:48.027Z,65.29
2022-11-24T04:55:48.041Z,64.69
2022-11-24T04:56:47.996Z,64.92
2022-11-24T04:57:47.992Z,63.91
2022-11-24T04:58:47.978Z,62.75
2022-11-24T04:59:47.968Z,62.97
2022-11-24T05:00:47.971Z,63.30
2022-11-24T05:01:47.982Z,63.37
2022-11-24T05:02:47.934Z,64.38
2022-11-24T05:03:47.957Z,66.30
2022-11-24T05:04:47.955Z,65.41
2022-11-24T05:05:47.935Z,65.96
2022-11-24T05:06:47.882Z,64.53
2022-11-24T05:07:48.026Z,65.24
2022-11-24T05:08:47.864Z,65.33
2022-11-24T05:09:58.880Z,65.73
2022-11-24T05:10:49.869Z,66.16
2022-11-24T05:11:47.830Z,65.23
2022-11-24T05:12:51.265Z,65.36
2022-11-24T05:13:48.809Z,64.32
2022-11-24T05:14:47.799Z,64.69
2022-11-24T05:15:47.852Z,65.45
2022-11-24T05:16:47.764Z,64.85
2022-11-24T05:17:47.763Z,64.72
2022-11-24T05:18:47.752Z,66.05
2022-11-24T05:19:47.742Z,67.29
2022-11-24T05:20:47.749Z,65.58
2022-11-24T05:21:47.716Z,66.08
2022-11-24T05:22:47.708Z,64.75
2022-11-24T05:23:47.692Z,66.72
2022-11-24T05:24:47.684Z,66.20
2022-11-24T05:25:48.114Z,65.86
2022-11-24T05:26:48.661Z,66.12
2022-11-24T05:27:47.652Z,65.05
2022-11-24T05:28:47.658Z,66.54
2022-11-24T05:29:47.631Z,65.65
2022-11-24T05:30:47.628Z,65.69
2022-11-24T05:31:47.643Z,66.56
2022-11-24T05:32:47.598Z,65.10
2022-11-24T05:33:47.580Z,64.22
2022-11-24T05:34:47.568Z,65.40
2022-11-24T05:35:47.592Z,65.99
2022-11-24T05:36:47.556Z,65.91
2022-11-24T05:37:47.558Z,66.99
2022-11-24T05:38:47.535Z,66.80
2022-11-24T05:39:47.515Z,65.48
2022-11-24T05:40:47.530Z,66.72
2022-11-24T05:41:47.498Z,66.57
2022-11-24T05:42:48.344Z,65.76
2022-11-24T05:43:48.467Z,67.00
2022-11-24T05:44:47.464Z,66.58
2022-11-24T05:45:47.471Z,66.97
2022-11-24T05:46:47.474Z,65.38
2022-11-24T05:47:47.431Z,66.56
2022-11-24T05:48:47.419Z,67.69
2022-11-24T05:49:47.414Z,65.91
2022-11-24T05:50:47.418Z,66.23
2022-11-24T05:51:47.395Z,65.87
2022-11-24T05:52:47.376Z,65.98
2022-11-24T05:53:47.363Z,66.46
2022-11-24T05:54:47.349Z,65.82
2022-11-24T05:55:47.352Z,65.68
2022-11-24T05:56:47.327Z,66.49
2022-11-24T05:57:47.324Z,65.00
2022-11-24T05:58:47.307Z,66.22
2022-11-24T05:59:47.290Z,65.44
2022-11-24T06:00:47.296Z,65.87
2022-11-24T06:01:47.349Z,67.04
2022-11-24T06:02:47.332Z,66.70
2022-11-24T06:03:47.243Z,66.09
2022-11-24T06:04:47.246Z,66.40
2022-11-24T06:05:48.248Z,65.16
2022-11-24T06:06:47.254Z,64.48
2022-11-24T06:07:47.210Z,63.50
2022-11-24T06:08:47.190Z,65.51
2022-11-24T06:09:47.185Z,66.28
2022-11-24T06:10:47.192Z,66.91
2022-11-24T06:11:47.159Z,65.00
2022-11-24T06:12:47.147Z,66.04
2022-11-24T06:13:47.194Z,66.63
2022-11-24T06:14:47.134Z,64.71
2022-11-24T06:15:47.134Z,65.55
2022-11-24T06:16:47.148Z,65.19
2022-11-24T06:17:47.108Z,66.10
2022-11-24T06:18:47.077Z,65.65
2022-11-24T06:19:47.081Z,66.45
2022-11-24T06:21:09.257Z,66.16
2022-11-24T06:21:49.051Z,64.26
2022-11-24T06:22:47.034Z,66.74
2022-11-24T06:23:47.022Z,67.48
2022-11-24T06:24:47.039Z,66.44
2022-11-24T06:25:51.423Z,66.51
2022-11-24T06:26:47.985Z,66.74
2022-11-24T06:27:47.969Z,67.38
2022-11-24T06:28:46.968Z,68.52
2022-11-24T06:29:46.978Z,67.24
2022-11-24T06:30:46.984Z,66.71
2022-11-24T06:31:46.995Z,66.54
2022-11-24T06:32:49.620Z,66.24
2022-11-24T06:33:47.910Z,67.40
2022-11-24T06:34:46.903Z,67.01
2022-11-24T06:35:46.914Z,68.11
2022-11-24T06:36:46.881Z,67.89
2022-11-24T06:37:46.866Z,68.37
2022-11-24T06:38:46.843Z,66.79
2022-11-24T06:39:47.838Z,68.13
2022-11-24T06:40:46.855Z,67.94
2022-11-24T06:41:46.861Z,67.93
2022-11-24T06:42:46.850Z,67.63
2022-11-24T06:43:46.797Z,67.64
2022-11-24T06:44:46.798Z,68.19
2022-11-24T06:45:46.825Z,68.25
2022-11-24T06:46:46.766Z,67.95
2022-11-24T06:47:46.804Z,68.19
2022-11-24T06:48:46.756Z,67.96
2022-11-24T06:49:46.742Z,68.15
2022-11-24T06:50:46.759Z,67.31
2022-11-24T06:51:46.723Z,69.29
2022-11-24T06:52:46.708Z,67.91
2022-11-24T06:53:46.705Z,68.28
2022-11-24T06:54:46.720Z,68.87
2022-11-24T06:55:46.691Z,68.26
2022-11-24T06:56:46.659Z,66.82
2022-11-24T06:57:46.657Z,68.16
2022-11-24T06:58:46.644Z,67.91
2022-11-24T06:59:46.631Z,68.58
2022-11-24T07:00:46.682Z,68.58
2022-11-24T07:01:46.612Z,68.28
2022-11-24T07:02:46.648Z,67.07
2022-11-24T07:03:46.584Z,68.03
2022-11-24T07:04:46.575Z,68.27
2022-11-24T07:05:46.593Z,68.39
2022-11-24T07:06:46.555Z,69.47
2022-11-24T07:07:46.560Z,67.90
2022-11-24T07:08:46.531Z,68.01
2022-11-24T07:09:46.530Z,67.29
2022-11-24T07:10:46.535Z,67.04
2022-11-24T07:11:46.494Z,67.74
2022-11-24T07:12:46.489Z,69.36
2022-11-24T07:13:46.487Z,68.93
2022-11-24T07:14:46.474Z,69.33
2022-11-24T07:15:46.489Z,67.98
2022-11-24T07:16:46.512Z,69.21
2022-11-24T07:17:46.448Z,67.80
2022-11-24T07:18:46.430Z,67.51
2022-11-24T07:19:46.410Z,67.89
2022-11-24T07:20:46.427Z,67.53
2022-11-24T07:21:46.401Z,67.85
2022-11-24T07:22:46.394Z,67.81
2022-11-24T07:23:46.378Z,67.19
2022-11-24T07:24:46.364Z,67.39
2022-11-24T07:25:46.379Z,66.85
2022-11-24T07:26:46.337Z,68.28
2022-11-24T07:27:46.329Z,66.58
2022-11-24T07:28:46.320Z,67.30
2022-11-24T07:29:46.311Z,67.32
2022-11-24T07:30:46.314Z,69.00
2022-11-24T07:31:46.354Z,66.92
2022-11-24T07:32:46.275Z,66.19
2022-11-24T07:33:46.264Z,68.26
2022-11-24T07:34:46.259Z,68.33
2022-11-24T07:35:46.238Z,67.41
2022-11-24T07:36:46.247Z,67.61
2022-11-24T07:37:46.220Z,66.25
2022-11-24T07:38:46.207Z,67.99
2022-11-24T07:39:46.197Z,66.75
2022-11-24T07:40:46.188Z,67.11
2022-11-24T07:41:46.192Z,68.63
2022-11-24T07:42:46.158Z,68.31
2022-11-24T07:43:46.153Z,66.95
2022-11-24T07:44:46.145Z,67.58
2022-11-24T07:45:46.162Z,68.78
2022-11-24T07:46:46.139Z,67.38
2022-11-24T07:47:46.098Z,67.47
2022-11-24T07:48:46.095Z,67.11
2022-11-24T07:49:46.083Z,66.10
2022-11-24T07:50:47.941Z,66.76
2022-11-24T07:51:46.134Z,67.75
2022-11-24T07:52:46.047Z,68.01
2022-11-24T07:53:46.046Z,67.63
2022-11-24T07:54:46.030Z,67.06
2022-11-24T07:55:46.009Z,65.77
2022-11-24T07:56:46.027Z,67.10
2022-11-24T07:57:45.996Z,66.29
2022-11-24T07:58:51.426Z,66.20
2022-11-24T07:59:46.975Z,68.54
2022-11-24T08:00:45.964Z,67.49
2022-11-24T08:01:46.050Z,66.83
2022-11-24T08:02:45.939Z,65.59
2022-11-24T08:03:45.990Z,66.51
2022-11-24T08:04:45.912Z,66.50
2022-11-24T08:06:22.194Z,66.44
2022-11-24T08:06:47.953Z,66.11
2022-11-24T08:07:47.001Z,68.06
2022-11-24T08:08:45.874Z,66.99
2022-11-24T08:09:45.865Z,67.52
2022-11-24T08:10:45.858Z,65.79
2022-11-24T08:11:45.863Z,66.52
2022-11-24T08:12:45.826Z,66.91
2022-11-24T08:13:45.818Z,66.87
2022-11-24T08:14:45.802Z,67.11
2022-11-24T08:15:45.796Z,66.73
2022-11-24T08:16:45.868Z,66.89
2022-11-24T08:17:45.771Z,67.36
2022-11-24T08:19:17.671Z,65.85
2022-11-24T08:19:45.747Z,67.42
2022-11-24T08:20:45.755Z,67.15
2022-11-24T08:21:45.780Z,67.17
2022-11-24T08:22:45.720Z,66.34
2022-11-24T08:23:45.713Z,66.89
2022-11-24T08:24:45.702Z,66.41
2022-11-24T08:25:45.690Z,66.52
2022-11-24T08:26:45.696Z,64.34
2022-11-24T08:27:45.682Z,66.29
2022-11-24T08:28:45.658Z,67.10
2022-11-24T08:29:45.641Z,65.87
2022-11-24T08:30:45.635Z,67.33
2022-11-24T08:31:45.706Z,66.83
2022-11-24T08:32:45.624Z,66.69
2022-11-24T08:33:45.596Z,66.55
2022-11-24T08:34:45.588Z,65.83
2022-11-24T08:35:45.610Z,67.15
2022-11-24T08:36:45.608Z,66.36
2022-11-24T08:37:45.604Z,65.33
2022-11-24T08:38:45.552Z,65.79
2022-11-24T08:39:45.543Z,66.15
2022-11-24T08:40:45.538Z,65.71
2022-11-24T08:41:45.520Z,67.50
2022-11-24T08:42:45.509Z,65.04
2022-11-24T08:43:45.497Z,66.37
2022-11-24T08:44:45.484Z,66.51
2022-11-24T08:45:45.525Z,67.21
2022-11-24T08:46:45.487Z,65.55
2022-11-24T08:47:45.455Z,65.04
2022-11-24T08:48:45.442Z,66.44
2022-11-24T08:49:45.422Z,65.70
2022-11-24T08:50:45.442Z,67.19
2022-11-24T08:51:45.427Z,65.36
2022-11-24T08:52:45.457Z,66.76
2022-11-24T08:53:45.384Z,67.36
2022-11-24T08:54:45.390Z,65.40
2022-11-24T08:55:45.369Z,67.23
2022-11-24T08:56:45.371Z,65.72
2022-11-24T08:57:45.378Z,66.19
2022-11-24T08:58:45.375Z,66.95
2022-11-24T08:59:45.323Z,65.49
2022-11-24T09:00:45.324Z,67.60
2022-11-24T09:01:45.365Z,65.82
2022-11-24T09:02:45.305Z,66.81
2022-11-24T09:03:50.363Z,66.82
2022-11-24T09:04:47.333Z,67.58
2022-11-24T09:05:53.024Z,67.12
2022-11-24T09:06:46.278Z,66.17
2022-11-24T09:07:45.328Z,67.16
2022-11-24T09:08:45.234Z,67.01
2022-11-24T09:09:45.224Z,66.56
2022-11-24T09:10:45.224Z,65.64
2022-11-24T09:11:45.223Z,67.92
2022-11-24T09:12:45.193Z,67.23
2022-11-24T09:13:45.184Z,67.87
2022-11-24T09:14:45.172Z,67.57
2022-11-24T09:15:45.165Z,66.20
2022-11-24T09:16:45.218Z,67.59
2022-11-24T09:17:45.138Z,66.40
2022-11-24T09:18:45.132Z,66.04
2022-11-24T09:19:45.120Z,66.83
2022-11-24T09:20:45.112Z,66.22
2022-11-24T09:21:45.157Z,65.50
2022-11-24T09:22:45.089Z,67.00
2022-11-24T09:23:45.092Z,66.61
2022-11-24T09:24:45.107Z,67.04
2022-11-24T09:25:45.059Z,67.77
2022-11-24T09:26:47.643Z,67.35
2022-11-24T09:27:46.039Z,67.55
2022-11-24T09:28:45.025Z,66.46
2022-11-24T09:29:45.017Z,65.90
2022-11-24T09:30:45.044Z,67.55
2022-11-24T09:31:45.023Z,67.32
2022-11-24T09:32:44.992Z,67.26
2022-11-24T09:33:44.987Z,67.33
2022-11-24T09:34:44.964Z,67.47
2022-11-24T09:35:44.976Z,66.26
2022-11-24T09:36:44.973Z,67.12
2022-11-24T09:37:44.955Z,66.82
2022-11-24T09:38:44.926Z,68.11
2022-11-24T09:39:44.916Z,68.40
2022-11-24T09:40:44.923Z,68.26
2022-11-24T09:41:44.907Z,68.88
2022-11-24T09:42:49.315Z,67.48
2022-11-24T09:43:46.883Z,67.48
2022-11-24T09:44:44.877Z,67.92
2022-11-24T09:46:06.949Z,65.87
2022-11-24T09:46:46.962Z,68.35
2022-11-24T09:47:44.843Z,66.00
2022-11-24T09:48:44.832Z,67.44
2022-11-24T09:49:48.552Z,68.25
2022-11-24T09:50:44.815Z,68.07
2022-11-24T09:51:44.823Z,66.68
2022-11-24T09:52:44.819Z,67.62
2022-11-24T09:53:44.787Z,66.54
2022-11-24T09:54:44.790Z,66.65
2022-11-24T09:55:44.776Z,65.95
2022-11-24T09:56:44.771Z,64.78
2022-11-24T09:57:44.732Z,65.39
2022-11-24T09:58:44.724Z,67.79
2022-11-24T09:59:44.721Z,66.00
2022-11-24T10:00:44.710Z,66.44
2022-11-24T10:01:44.787Z,65.29
2022-11-24T10:02:44.690Z,64.94
2022-11-24T10:03:44.681Z,66.26
2022-11-24T10:04:44.727Z,67.27
2022-11-24T10:05:44.650Z,68.05
2022-11-24T10:06:44.666Z,66.05
2022-11-24T10:07:44.692Z,65.91
2022-11-24T10:08:44.636Z,66.68
2022-11-24T10:09:44.629Z,66.98
2022-11-24T10:10:44.608Z,66.88
2022-11-24T10:11:44.620Z,66.43
2022-11-24T10:12:44.588Z,66.06
2022-11-24T10:13:44.575Z,66.38
2022-11-24T10:14:44.572Z,66.07
2022-11-24T10:15:44.617Z,66.51
2022-11-24T10:16:44.567Z,67.48
2022-11-24T10:17:44.544Z,67.02
2022-11-24T10:18:44.529Z,66.32
2022-11-24T10:19:44.607Z,65.51
2022-11-24T10:20:44.536Z,66.48
2022-11-24T10:21:44.547Z,64.96
2022-11-24T10:22:44.507Z,68.05
2022-11-24T10:23:44.484Z,67.26
2022-11-24T10:24:44.467Z,67.20
2022-11-24T10:25:44.454Z,65.72
2022-11-24T10:26:44.478Z,65.80
2022-11-24T10:27:44.446Z,67.78
2022-11-24T10:28:44.455Z,66.55
2022-11-24T10:29:44.421Z,66.01
2022-11-24T10:30:44.490Z,65.26
2022-11-24T10:31:44.423Z,65.45
2022-11-24T10:32:44.395Z,65.32
2022-11-24T10:33:44.376Z,64.82
2022-11-24T10:34:44.375Z,65.71
2022-11-24T10:35:44.373Z,66.48
2022-11-24T10:36:44.394Z,65.16
2022-11-24T10:37:44.343Z,67.44
2022-11-24T10:38:44.350Z,65.36
2022-11-24T10:39:44.325Z,64.98
2022-11-24T10:40:59.759Z,66.08
2022-11-24T10:41:46.319Z,67.17
2022-11-24T10:42:45.294Z,65.36
2022-11-24T10:43:44.308Z,64.70
2022-11-24T10:44:44.279Z,64.86
2022-11-24T10:45:44.271Z,66.53
2022-11-24T10:46:44.341Z,67.13
2022-11-24T10:47:44.260Z,67.46
2022-11-24T10:48:44.243Z,65.28
2022-11-24T10:49:44.259Z,67.53
2022-11-24T10:50:44.217Z,66.03
2022-11-24T10:51:44.260Z,66.25
2022-11-24T10:52:44.205Z,65.46
2022-11-24T10:53:44.199Z,65.88
2022-11-24T10:54:44.216Z,64.49
2022-11-24T10:55:44.207Z,64.84
2022-11-24T10:56:44.175Z,65.36
2022-11-24T10:57:44.152Z,64.63
2022-11-24T10:58:44.137Z,63.83
2022-11-24T10:59:44.183Z,63.57
2022-11-24T11:00:44.121Z,64.97
2022-11-24T11:01:44.227Z,63.98
2022-11-24T11:02:44.156Z,64.77
2022-11-24T11:03:44.122Z,64.66
2022-11-24T11:04:44.092Z,63.83
2022-11-24T11:05:44.068Z,62.50
2022-11-24T11:06:44.085Z,65.27
2022-11-24T11:07:44.157Z,66.42
2022-11-24T11:08:44.044Z,65.44
2022-11-24T11:09:44.035Z,66.55
2022-11-24T11:10:44.021Z,67.61
2022-11-24T11:11:44.044Z,65.76
2022-11-24T11:12:45.114Z,66.02
2022-11-24T11:13:44.996Z,67.94
2022-11-24T11:14:43.984Z,67.31
2022-11-24T11:15:44.093Z,64.99
2022-11-24T11:16:43.983Z,66.23
2022-11-24T11:17:43.948Z,66.38
2022-11-24T11:18:43.948Z,67.25
2022-11-24T11:19:54.278Z,64.51
2022-11-24T11:20:45.938Z,64.77
2022-11-24T11:21:43.943Z,65.77
2022-11-24T11:22:43.920Z,65.08
2022-11-24T11:23:43.903Z,66.17
2022-11-24T11:24:43.885Z,66.70
2022-11-24T11:25:43.885Z,65.89
2022-11-24T11:26:43.884Z,64.91
2022-11-24T11:27:43.860Z,66.33
2022-11-24T11:28:43.836Z,65.70
2022-11-24T11:34:02.811Z,63.31
2022-11-24T11:34:03.244Z,65.89
2022-11-24T11:34:45.790Z,66.60
2022-11-24T11:35:43.772Z,66.88
2022-11-24T11:36:43.790Z,66.18
2022-11-24T11:37:43.750Z,66.22
2022-11-24T11:38:44.755Z,65.18
2022-11-24T11:39:48.490Z,66.55
2022-11-24T11:40:45.729Z,65.40
2022-11-24T11:41:43.740Z,65.61
2022-11-24T11:43:01.994Z,65.93
2022-11-24T11:43:45.719Z,66.97
2022-11-24T11:44:43.702Z,67.60
2022-11-24T11:45:43.721Z,67.47
2022-11-24T11:46:43.823Z,65.57
2022-11-24T11:47:43.662Z,65.17
2022-11-24T11:48:44.147Z,64.31
2022-11-24T11:49:43.641Z,66.23
2022-11-24T11:51:14.831Z,66.68
2022-11-24T11:51:45.750Z,66.15
2022-11-24T11:52:43.611Z,65.96
2022-11-24T11:53:43.643Z,65.42
2022-11-24T11:54:43.603Z,66.12
2022-11-24T11:55:49.492Z,66.36
2022-11-24T11:56:45.598Z,67.47
2022-11-24T11:57:43.575Z,66.26
2022-11-24T11:58:43.562Z,67.13
2022-11-24T11:59:43.544Z,67.01
2022-11-24T12:00:43.537Z,66.70
2022-11-24T12:01:43.714Z,66.01
2022-11-24T12:02:48.447Z,66.12
2022-11-24T12:03:44.599Z,66.74
2022-11-24T12:04:43.497Z,66.96
2022-11-24T12:05:43.485Z,67.32
2022-11-24T12:06:43.510Z,67.75
2022-11-24T12:07:43.547Z,67.77
2022-11-24T12:09:11.744Z,66.95
2022-11-24T12:09:45.450Z,66.48
2022-11-24T12:10:43.458Z,67.00
2022-11-24T12:11:43.439Z,66.72
2022-11-24T12:12:43.427Z,67.23
2022-11-24T12:13:43.407Z,67.84
2022-11-24T12:14:43.406Z,68.10
2022-11-24T12:15:43.444Z,68.63
2022-11-24T12:16:43.363Z,67.84
2022-11-24T12:17:43.386Z,68.90
2022-11-24T12:18:59.121Z,68.60
2022-11-24T12:19:45.341Z,68.14
2022-11-24T12:20:44.338Z,67.24
2022-11-24T12:21:43.328Z,66.89
2022-11-24T12:22:43.342Z,67.96
2022-11-24T12:23:43.313Z,68.11
2022-11-24T12:24:43.346Z,69.34
2022-11-24T12:25:43.290Z,70.34
2022-11-24T12:26:43.284Z,69.63
2022-11-24T12:27:43.290Z,69.50
2022-11-24T12:28:43.261Z,69.56
2022-11-24T12:29:43.256Z,68.76
2022-11-24T12:30:43.253Z,69.52
2022-11-24T12:31:43.273Z,69.01
2022-11-24T12:32:43.242Z,68.78
2022-11-24T12:33:49.140Z,70.25
2022-11-24T12:34:45.205Z,69.29
2022-11-24T12:35:43.183Z,69.47
2022-11-24T12:36:43.173Z,69.31
2022-11-24T12:37:43.188Z,68.62
2022-11-24T12:38:43.164Z,70.07
2022-11-24T12:39:43.144Z,69.68
2022-11-24T12:40:46.926Z,70.07
2022-11-24T12:41:44.145Z,68.83
2022-11-24T12:42:43.144Z,69.25
2022-11-24T12:43:43.110Z,69.70
2022-11-24T12:44:43.101Z,69.16
2022-11-24T12:45:43.095Z,68.27
2022-11-24T12:46:43.140Z,69.69
2022-11-24T12:47:43.099Z,69.26
2022-11-24T12:48:43.064Z,69.84
2022-11-24T12:49:43.070Z,69.45
2022-11-24T12:50:43.043Z,69.31
2022-11-24T12:51:43.042Z,69.36
2022-11-24T12:52:43.057Z,69.97
2022-11-24T12:53:43.017Z,69.57
2022-11-24T12:54:43.012Z,68.62
2022-11-24T12:55:43.009Z,69.48